Time;durP1;ratioP1;P1;durP2;ratioP2;P2;SDS_P1;SDS_P2;PMS_P1;PMS_P2;Temp;Humidity;BMP_temperature;BMP_pressure;BME280_temperature;BME280_humidity;BME280_pressure;Samples;Min_cycle;Max_cycle;Signal;HPM_P1;HPM_P2
2023/02/22 00:00:01;;;;;;;46.35;24.90;;;;;;;10.61;71.02;100249.63;5147073;27;20046;-60
2023/02/22 00:02:31;;;;;;;52.00;26.98;;;;;;;10.62;70.72;100242.88;5149473;27;20046;-59
2023/02/22 00:05:07;;;;;;;49.20;24.67;;;;;;;10.61;71.46;100246.84;5141317;27;20042;-58
2023/02/22 00:07:40;;;;;;;48.35;26.48;;;;;;;10.66;71.01;100244.72;5136524;27;20403;-59
2023/02/22 00:10:29;;;;;;;46.92;27.00;;;;;;;10.54;71.58;100239.75;5141495;27;20418;-59
2023/02/22 00:12:56;;;;;;;43.00;23.35;;;;;;;10.51;70.86;100248.72;5131548;27;20229;-60
2023/02/22 00:15:32;;;;;;;45.38;23.92;;;;;;;10.43;70.58;100234.78;5147546;27;20410;-60
2023/02/22 00:18:01;;;;;;;46.08;23.05;;;;;;;10.29;70.81;100230.13;5152883;27;20394;-60
2023/02/22 00:20:40;;;;;;;50.75;23.00;;;;;;;10.24;71.73;100226.59;5145568;27;20050;-60
2023/02/22 00:23:13;;;;;;;39.80;21.20;;;;;;;10.13;72.02;100226.06;5151656;27;20490;-60
2023/02/22 00:25:41;;;;;;;54.75;23.00;;;;;;;10.06;71.32;100228.47;5147280;27;20043;-59
2023/02/22 00:28:08;;;;;;;94.13;25.17;;;;;;;10.01;71.36;100226.63;5146741;27;20505;-61
2023/02/22 00:30:43;;;;;;;45.38;22.60;;;;;;;9.90;71.96;100225.25;5153031;27;20050;-60
2023/02/22 00:33:18;;;;;;;41.67;22.40;;;;;;;9.91;73.28;100224.94;5154402;27;20486;-59
2023/02/22 00:35:46;;;;;;;48.90;23.02;;;;;;;9.89;73.20;100229.13;5141274;27;20458;-59
2023/02/22 00:38:19;;;;;;;56.72;22.58;;;;;;;9.96;72.41;100221.19;5151208;27;20047;-63
2023/02/22 00:40:54;;;;;;;66.78;24.88;;;;;;;9.95;72.77;100211.19;5142600;27;20054;-61
2023/02/22 00:43:26;;;;;;;45.38;23.08;;;;;;;9.85;73.04;100220.63;5145987;27;20049;-61
2023/02/22 00:45:56;;;;;;;67.68;23.55;;;;;;;9.78;72.05;100208.28;5144272;27;20046;-60
2023/02/22 00:48:25;;;;;;;54.13;23.02;;;;;;;9.68;73.11;100210.19;5138579;27;20517;-60
2023/02/22 00:50:54;;;;;;;69.40;23.58;;;;;;;9.71;74.16;100197.59;5142881;27;20066;-60
2023/02/22 00:53:23;;;;;;;47.88;23.85;;;;;;;9.76;72.86;100208.59;5139831;27;20047;-61
2023/02/22 00:55:56;;;;;;;45.20;23.60;;;;;;;9.82;73.77;100200.97;5152814;27;20055;-60
2023/02/22 00:58:41;;;;;;;38.88;22.05;;;;;;;9.91;73.22;100201.81;5153977;27;20060;-61
2023/02/22 01:01:13;;;;;;;51.25;20.83;;;;;;;9.96;73.54;100205.31;5136689;27;20054;-60
2023/02/22 01:03:41;;;;;;;35.63;19.48;;;;;;;9.93;72.21;100205.13;5151793;27;20059;-60
2023/02/22 01:06:10;;;;;;;37.42;19.17;;;;;;;9.92;72.58;100198.72;5144656;27;20043;-60
2023/02/22 01:08:47;;;;;;;56.55;21.73;;;;;;;9.87;72.54;100200.81;5138947;27;20402;-61
2023/02/22 01:11:17;;;;;;;50.25;19.42;;;;;;;9.81;72.79;100199.31;5142723;27;20047;-61
2023/02/22 01:13:45;;;;;;;53.33;20.20;;;;;;;9.74;72.30;100200.59;5144790;27;20047;-61
2023/02/22 01:16:17;;;;;;;36.72;18.80;;;;;;;9.73;72.26;100193.38;5144620;27;20046;-60
2023/02/22 01:18:44;;;;;;;33.70;17.90;;;;;;;9.69;72.57;100189.56;5155260;27;20042;-60
2023/02/22 01:21:15;;;;;;;38.60;15.80;;;;;;;9.60;71.84;100190.66;5148723;27;20054;-60
2023/02/22 01:23:45;;;;;;;30.42;15.52;;;;;;;9.54;71.82;100184.38;5144976;27;20058;-60
2023/02/22 01:26:17;;;;;;;52.80;17.85;;;;;;;9.50;72.08;100181.41;5146563;27;20047;-60
2023/02/22 01:28:45;;;;;;;26.92;15.68;;;;;;;9.46;72.25;100176.78;5146856;27;21262;-60
2023/02/22 01:31:20;;;;;;;40.70;16.58;;;;;;;9.42;71.46;100176.59;5143918;27;20055;-61
2023/02/22 01:33:50;;;;;;;46.40;15.85;;;;;;;9.42;72.45;100181.34;5141488;27;20050;-60
2023/02/22 01:36:18;;;;;;;36.58;17.33;;;;;;;9.37;71.59;100171.16;5146790;27;20050;-60
2023/02/22 01:38:46;;;;;;;38.67;16.02;;;;;;;9.39;71.65;100168.06;5155352;27;20055;-61
2023/02/22 01:41:17;;;;;;;40.55;18.50;;;;;;;9.33;72.84;100162.63;5155483;27;20050;-61
2023/02/22 01:43:50;;;;;;;29.10;15.88;;;;;;;9.36;72.95;100161.16;5138422;27;20395;-60
2023/02/22 01:46:28;;;;;;;37.58;15.88;;;;;;;9.30;73.49;100154.94;5144387;27;20050;-60
2023/02/22 01:49:00;;;;;;;40.03;16.67;;;;;;;9.32;72.15;100158.22;5142506;27;20043;-61
2023/02/22 01:51:36;;;;;;;33.35;15.60;;;;;;;9.31;72.64;100155.75;5137671;27;20047;-60
2023/02/22 01:54:27;;;;;;;38.33;15.20;;;;;;;9.25;72.36;100145.88;5138488;27;20487;-60
2023/02/22 01:57:04;;;;;;;63.25;15.43;;;;;;;9.10;71.78;100149.84;5141146;27;20411;-59
2023/02/22 01:59:38;;;;;;;101.60;20.75;;;;;;;9.02;73.23;100153.34;5140895;27;20051;-61
2023/02/22 02:02:11;;;;;;;58.47;16.25;;;;;;;9.02;72.02;100139.44;5139773;27;20719;-61
2023/02/22 02:04:41;;;;;;;53.45;15.77;;;;;;;8.94;72.96;100155.75;5145200;27;20227;-60
2023/02/22 02:07:28;;;;;;;79.63;16.13;;;;;;;8.79;72.15;100144.94;5142445;27;20043;-60
2023/02/22 02:10:02;;;;;;;100.28;16.60;;;;;;;8.71;72.89;100152.06;5146527;27;20128;-61
2023/02/22 02:12:32;;;;;;;38.55;15.07;;;;;;;8.73;73.71;100146.19;5135383;27;20051;-59
2023/02/22 02:15:20;;;;;;;59.17;15.30;;;;;;;8.75;74.26;100141.13;5135853;27;20062;-60
2023/02/22 02:17:51;;;;;;;113.68;19.25;;;;;;;8.75;73.44;100141.13;5150157;27;20446;-61
2023/02/22 02:20:27;;;;;;;83.70;16.88;;;;;;;8.75;74.54;100132.81;5143517;27;20058;-61
2023/02/22 02:23:06;;;;;;;97.32;17.88;;;;;;;8.83;74.39;100134.84;5146485;27;20529;-61
2023/02/22 02:25:59;;;;;;;48.27;14.47;;;;;;;8.81;74.53;100136.31;5138148;27;20055;-60
2023/02/22 02:29:01;;;;;;;68.20;15.40;;;;;;;8.81;74.63;100137.13;5139749;27;20059;-60
2023/02/22 02:32:13;;;;;;;144.30;18.85;;;;;;;8.81;74.19;100128.78;5135902;27;20090;-60
2023/02/22 02:34:50;;;;;;;79.40;14.65;;;;;;;8.74;73.37;100131.19;5138966;27;20051;-61
2023/02/22 02:37:33;;;;;;;61.90;15.82;;;;;;;8.74;75.19;100125.63;5151643;27;20055;-61
2023/02/22 02:40:11;;;;;;;54.90;14.65;;;;;;;8.78;73.76;100131.34;5137926;27;20042;-60
2023/02/22 02:42:44;;;;;;;60.60;15.18;;;;;;;8.71;75.02;100123.44;5134770;27;20049;-61
2023/02/22 02:48:42;;;;;;;44.72;13.38;;;;;;;8.59;74.47;100118.44;5067640;28;20548;-60
2023/02/22 02:51:18;;;;;;;49.35;13.27;;;;;;;8.57;74.72;100120.72;5062319;28;20056;-61
2023/02/22 02:53:50;;;;;;;79.95;16.02;;;;;;;8.58;74.46;100119.56;5130019;27;20063;-60
2023/02/22 02:56:23;;;;;;;53.80;12.88;;;;;;;8.58;74.78;100114.00;5133854;27;20065;-62
2023/02/22 02:58:53;;;;;;;77.63;13.65;;;;;;;8.49;74.47;100116.69;5141109;27;20055;-60
2023/02/22 03:01:45;;;;;;;42.75;12.27;;;;;;;8.40;74.53;100110.19;5135101;27;20475;-61
2023/02/22 03:04:37;;;;;;;53.97;12.57;;;;;;;8.40;74.64;100107.44;5134457;27;20054;-61
2023/02/22 03:07:25;;;;;;;99.18;14.20;;;;;;;8.41;74.17;100102.72;5133601;27;20047;-63
2023/02/22 03:10:12;;;;;;;54.20;12.25;;;;;;;8.29;73.81;100101.25;5134064;27;20054;-63
2023/02/22 03:12:48;;;;;;;91.70;14.02;;;;;;;8.19;74.01;100093.13;5139725;27;20426;-64
2023/02/22 03:15:33;;;;;;;85.47;13.52;;;;;;;8.17;74.12;100095.41;5137766;27;20047;-62
2023/02/22 03:18:06;;;;;;;91.53;12.27;;;;;;;8.17;74.86;100089.00;5144260;27;20485;-62
2023/02/22 03:20:46;;;;;;;108.10;13.75;;;;;;;8.10;74.63;100089.41;5137774;27;20055;-63
2023/02/22 03:23:24;;;;;;;75.88;11.73;;;;;;;8.00;74.44;100084.91;5130416;27;20536;-62
2023/02/22 03:26:00;;;;;;;75.10;12.55;;;;;;;7.95;74.16;100090.53;5139124;27;20050;-64
2023/02/22 03:28:33;;;;;;;48.35;9.38;;;;;;;7.91;73.14;100090.31;5137792;27;20043;-65
2023/02/22 03:31:18;;;;;;;61.72;10.68;;;;;;;7.90;73.13;100085.09;5148053;27;20069;-63
2023/02/22 03:36:49;;;;;;;63.72;11.52;;;;;;;7.84;73.52;100078.81;5087708;28;20489;-64
2023/02/22 03:39:27;;;;;;;107.57;13.02;;;;;;;7.85;73.43;100077.72;5143915;27;20065;-62
2023/02/22 03:42:01;;;;;;;106.78;11.70;;;;;;;7.81;73.25;100081.38;5132933;27;20487;-62
2023/02/22 03:44:31;;;;;;;199.20;17.15;;;;;;;7.70;72.97;100078.78;5138700;27;20074;-63
2023/02/22 03:47:04;;;;;;;93.45;11.68;;;;;;;7.61;74.25;100077.84;5131467;28;20050;-63
2023/02/22 03:49:35;;;;;;;105.18;12.45;;;;;;;7.62;74.34;100073.97;5133721;27;20091;-64
2023/02/22 03:52:11;;;;;;;79.45;10.55;;;;;;;7.60;73.46;100075.38;5143377;27;20081;-60
2023/02/22 03:54:40;;;;;;;84.20;11.43;;;;;;;7.51;73.41;100072.47;5145681;27;20059;-61
2023/02/22 03:57:12;;;;;;;48.45;8.70;;;;;;;7.49;73.37;100075.56;5144080;27;20525;-62
2023/02/22 03:59:40;;;;;;;56.90;9.68;;;;;;;7.41;72.68;100072.66;5153362;27;20058;-60
2023/02/22 04:02:08;;;;;;;52.10;9.98;;;;;;;7.35;73.14;100073.88;5145407;27;20047;-61
2023/02/22 04:04:37;;;;;;;61.45;10.90;;;;;;;7.30;72.93;100080.31;5136990;27;20483;-61
2023/02/22 04:07:10;;;;;;;132.05;12.43;;;;;;;7.31;72.74;100070.91;5153160;27;20057;-61
2023/02/22 04:09:38;;;;;;;204.15;15.68;;;;;;;7.23;72.57;100069.63;5133890;27;20047;-60
2023/02/22 04:12:06;;;;;;;64.63;9.55;;;;;;;7.21;73.14;100074.66;5143818;27;20042;-61
2023/02/22 04:14:34;;;;;;;132.18;12.43;;;;;;;7.23;73.37;100072.41;5140402;27;20057;-60
2023/02/22 04:17:01;;;;;;;54.28;9.57;;;;;;;7.20;72.89;100074.94;5145037;27;20050;-60
2023/02/22 04:19:30;;;;;;;114.95;11.85;;;;;;;7.18;73.78;100066.09;5142018;27;20065;-60
2023/02/22 04:21:58;;;;;;;90.97;9.95;;;;;;;7.11;74.00;100067.31;5144770;27;20058;-61
2023/02/22 04:24:57;;;;;;;;;;;;;;;;;;;;;
2023/02/22 04:27:25;;;;;;;74.13;9.48;;;;;;;7.06;74.19;100061.06;5136386;27;20047;-60
2023/02/22 04:29:56;;;;;;;94.90;10.80;;;;;;;7.03;73.13;100061.63;5139903;27;20058;-60
2023/02/22 04:32:24;;;;;;;34.42;7.90;;;;;;;7.01;73.51;100063.88;5139450;27;20422;-60
2023/02/22 04:34:51;;;;;;;77.78;10.43;;;;;;;6.97;73.95;100060.91;5139906;27;20047;-62
2023/02/22 04:37:19;;;;;;;260.02;18.33;;;;;;;6.87;72.83;100058.31;5143388;27;20053;-60
2023/02/22 04:39:51;;;;;;;160.20;13.82;;;;;;;6.83;73.34;100058.06;5145044;27;20046;-61
2023/02/22 04:42:19;;;;;;;187.25;15.10;;;;;;;6.79;73.54;100057.03;5142940;27;20054;-60
2023/02/22 04:44:48;;;;;;;87.90;10.25;;;;;;;6.74;73.91;100048.81;5141616;27;20506;-60
2023/02/22 04:47:19;;;;;;;99.95;9.98;;;;;;;6.72;74.15;100048.28;5138244;27;20051;-59
2023/02/22 04:49:46;;;;;;;119.20;11.80;;;;;;;6.63;74.28;100047.28;5145827;27;20062;-60
2023/02/22 04:52:16;;;;;;;83.35;10.02;;;;;;;6.64;74.04;100043.41;5130420;27;20410;-60
2023/02/22 04:54:44;;;;;;;117.75;10.80;;;;;;;6.60;74.00;100042.38;5143037;27;20058;-60
2023/02/22 04:57:13;;;;;;;105.50;10.63;;;;;;;6.56;74.00;100035.78;5141567;27;20058;-60
2023/02/22 04:59:41;;;;;;;65.47;8.83;;;;;;;6.54;74.83;100038.00;5142259;27;21406;-61
2023/02/22 05:02:11;;;;;;;58.47;8.32;;;;;;;6.53;74.20;100036.34;5139076;27;20062;-60
2023/02/22 05:04:46;;;;;;;96.20;9.13;;;;;;;6.48;74.51;100027.00;5138165;27;20047;-60
2023/02/22 05:07:14;;;;;;;96.20;9.27;;;;;;;6.39;74.36;100026.03;5138865;27;20054;-60
2023/02/22 05:09:45;;;;;;;189.32;18.27;;;;;;;6.29;73.50;100026.16;5145713;27;20051;-59
2023/02/22 05:12:15;;;;;;;80.60;9.38;;;;;;;6.23;73.86;100030.13;5134272;27;20055;-60
2023/02/22 05:14:47;;;;;;;52.53;7.38;;;;;;;6.26;74.73;100024.00;5136982;27;20047;-63
2023/02/22 05:17:16;;;;;;;62.15;8.30;;;;;;;6.19;74.34;100021.59;5139155;27;20047;-63
2023/02/22 05:19:49;;;;;;;68.15;8.63;;;;;;;6.13;74.52;100028.28;5151542;27;20043;-64
2023/02/22 05:22:19;;;;;;;78.07;8.88;;;;;;;6.13;74.87;100019.19;5146707;27;20058;-62
2023/02/22 05:24:51;;;;;;;50.17;7.65;;;;;;;6.09;74.70;100011.50;5142389;27;20047;-63
2023/02/22 05:27:22;;;;;;;62.80;8.48;;;;;;;5.98;74.89;100025.72;5150425;27;20514;-64
2023/02/22 05:29:50;;;;;;;53.47;8.15;;;;;;;6.03;75.17;100018.22;5145013;27;20059;-62
2023/02/22 05:32:18;;;;;;;40.80;7.22;;;;;;;5.99;74.99;100021.88;5138757;27;20433;-60
2023/02/22 05:34:45;;;;;;;120.25;14.00;;;;;;;5.89;74.79;100023.56;5135265;27;20066;-60
2023/02/22 05:37:13;;;;;;;64.72;8.60;;;;;;;5.92;74.76;100019.41;5142028;27;20055;-61
2023/02/22 05:39:40;;;;;;;42.45;7.90;;;;;;;5.86;74.95;100015.06;5135635;27;20058;-60
2023/02/22 05:42:08;;;;;;;62.45;10.07;;;;;;;5.82;74.87;100014.00;5142900;27;20054;-60
2023/02/22 05:44:37;;;;;;;66.22;9.18;;;;;;;5.78;74.96;100016.53;5143328;27;20055;-60
2023/02/22 05:47:05;;;;;;;39.75;9.15;;;;;;;5.74;75.08;100021.00;5137287;27;20070;-60
2023/02/22 05:49:33;;;;;;;39.13;8.43;;;;;;;5.74;75.08;100020.19;5136918;27;20699;-60
2023/02/22 05:52:03;;;;;;;188.68;18.50;;;;;;;5.72;75.08;100016.88;5145880;27;20043;-60
2023/02/22 05:54:31;;;;;;;23.27;7.40;;;;;;;5.66;75.17;100018.88;5144583;27;20062;-60
2023/02/22 05:56:58;;;;;;;49.65;10.43;;;;;;;5.65;75.19;100012.53;5147587;27;20043;-60
2023/02/22 05:59:26;;;;;;;59.28;9.07;;;;;;;5.67;75.07;100009.47;5142140;27;20051;-60
2023/02/22 06:02:03;;;;;;;61.40;9.00;;;;;;;5.65;74.80;100012.53;5140958;27;20046;-60
2023/02/22 06:04:30;;;;;;;37.38;8.10;;;;;;;5.59;74.83;100007.34;5153816;27;20051;-60
2023/02/22 06:07:00;;;;;;;60.08;8.43;;;;;;;5.57;75.08;100009.59;5143590;27;20054;-61
2023/02/22 06:09:27;;;;;;;65.50;9.68;;;;;;;5.57;74.97;100012.34;5142390;27;20055;-60
2023/02/22 06:11:55;;;;;;;48.33;7.65;;;;;;;5.61;74.73;100014.22;5140125;27;20055;-59
2023/02/22 06:14:23;;;;;;;64.28;8.80;;;;;;;5.52;74.94;100020.69;5144529;27;20050;-63
2023/02/22 06:16:53;;;;;;;56.28;8.20;;;;;;;5.55;74.71;100015.41;5141193;27;20058;-61
2023/02/22 06:19:22;;;;;;;60.63;9.35;;;;;;;5.48;74.86;100006.63;5138467;27;20047;-60
2023/02/22 06:21:50;;;;;;;43.10;7.47;;;;;;;5.45;74.75;100018.25;5141191;27;20047;-60
2023/02/22 06:24:22;;;;;;;22.17;6.88;;;;;;;5.35;74.19;100015.59;5148840;27;20050;-60
2023/02/22 06:27:01;;;;;;;24.73;7.30;;;;;;;5.28;74.39;100019.53;5141617;27;20061;-60
2023/02/22 06:29:32;;;;;;;17.38;6.28;;;;;;;5.26;74.51;100015.41;5149898;27;20059;-61
2023/02/22 06:32:00;;;;;;;24.77;7.38;;;;;;;5.27;73.93;100020.66;5140436;27;20051;-61
2023/02/22 06:34:29;;;;;;;11.10;6.15;;;;;;;5.20;73.34;100020.13;5133608;27;20054;-61
2023/02/22 06:36:59;;;;;;;10.30;5.17;;;;;;;5.07;73.09;100018.06;5138635;27;20414;-59
2023/02/22 06:39:27;;;;;;;7.03;5.60;;;;;;;5.02;72.51;100018.94;5141159;27;20050;-61
2023/02/22 06:41:56;;;;;;;7.35;5.53;;;;;;;4.97;73.31;100026.41;5145654;27;20047;-60
2023/02/22 06:47:10;;;;;;;6.13;4.75;;;;;;;5.05;72.60;100023.03;5141059;27;20058;-60
2023/02/22 06:49:39;;;;;;;5.68;4.57;;;;;;;5.12;72.59;100015.25;5138427;27;20046;-60
2023/02/22 06:52:07;;;;;;;5.82;4.53;;;;;;;5.17;72.60;100017.16;5098820;27;20051;-60
2023/02/22 06:54:35;;;;;;;5.75;4.50;;;;;;;5.18;72.39;100014.09;5141774;27;20047;-61
2023/02/22 06:57:03;;;;;;;5.75;4.13;;;;;;;5.33;72.30;100023.34;5124491;27;20090;-61
2023/02/22 06:59:42;;;;;;;6.60;5.07;;;;;;;5.39;72.64;100014.72;5122477;27;20058;-60
2023/02/22 07:02:25;;;;;;;6.55;4.82;;;;;;;5.52;72.41;100012.38;5122947;27;20047;-61
2023/02/22 07:04:55;;;;;;;8.35;5.68;;;;;;;5.65;72.21;100015.28;5128373;27;20483;-60
2023/02/22 07:07:24;;;;;;;7.78;6.25;;;;;;;5.78;72.00;100018.47;5113198;28;20062;-61
2023/02/22 07:10:05;;;;;;;11.20;7.60;;;;;;;5.89;71.40;100018.06;5116819;28;20475;-60
2023/02/22 07:12:46;;;;;;;10.52;8.10;;;;;;;6.06;70.90;100016.78;5113266;28;20058;-61
2023/02/22 07:15:34;;;;;;;11.50;7.97;;;;;;;6.25;70.61;100017.63;5119442;27;20514;-60
2023/02/22 07:18:10;;;;;;;11.45;8.00;;;;;;;6.44;70.65;100025.94;5114732;27;20051;-61
2023/02/22 07:20:42;;;;;;;9.80;6.85;;;;;;;6.63;69.96;100020.44;5115143;28;20523;-61
2023/02/22 07:23:13;;;;;;;9.02;6.40;;;;;;;6.81;69.28;100021.56;5119863;27;20490;-61
2023/02/22 07:25:44;;;;;;;10.63;6.00;;;;;;;7.07;68.21;100015.59;5135032;27;20402;-61
2023/02/22 07:28:15;;;;;;;7.35;5.70;;;;;;;7.43;67.31;100021.38;5125845;27;20411;-61
2023/02/22 07:31:04;;;;;;;8.32;5.80;;;;;;;7.71;66.03;100015.88;5124911;27;20051;-61
2023/02/22 07:33:34;;;;;;;9.57;6.47;;;;;;;7.99;64.94;100022.25;5116428;27;20499;-61
2023/02/22 07:36:41;;;;;;;9.15;5.97;;;;;;;8.18;64.22;100015.75;5119395;27;20059;-61
2023/02/22 07:39:13;;;;;;;6.65;5.00;;;;;;;8.22;63.93;100014.00;5127250;27;20050;-61
2023/02/22 07:41:48;;;;;;;7.03;5.60;;;;;;;8.40;62.98;100017.78;5134660;27;20043;-63
2023/02/22 07:44:34;;;;;;;11.85;6.20;;;;;;;8.70;62.60;100013.53;5126782;27;20070;-61
2023/02/22 07:47:05;;;;;;;8.90;6.57;;;;;;;9.25;62.18;100012.47;5123946;27;20062;-65
2023/02/22 07:49:33;;;;;;;18.65;7.10;;;;;;;9.55;60.61;100014.47;5122237;27;20048;-63
2023/02/22 07:52:03;;;;;;;9.60;5.93;;;;;;;9.90;60.08;100009.06;5119671;27;20051;-63
2023/02/22 07:55:10;;;;;;;21.58;6.97;;;;;;;10.60;57.72;100011.22;5131110;27;20054;-64
2023/02/22 07:57:43;;;;;;;9.80;5.57;;;;;;;11.17;56.86;100008.25;5137252;27;20046;-63
2023/02/22 08:00:25;;;;;;;19.65;6.65;;;;;;;12.06;54.86;99994.56;5145412;27;20058;-64
2023/02/22 08:02:56;;;;;;;6.68;5.22;;;;;;;12.98;51.40;99993.78;5144870;27;20051;-63
2023/02/22 08:05:26;;;;;;;6.75;5.32;;;;;;;13.68;51.07;99987.47;5148922;27;20050;-61
2023/02/22 08:08:02;;;;;;;;;;;;;;;14.39;48.58;99979.81;5146033;27;20054;-61
2023/02/22 08:14:00;;;;;;;12.38;7.22;;;;;;;15.04;46.38;99978.97;5101567;27;20194;-62
2023/02/22 08:16:28;;;;;;;9.35;7.65;;;;;;;15.97;45.04;99979.47;5099921;27;20050;-64
2023/02/22 08:19:02;;;;;;;6.80;5.70;;;;;;;16.49;43.80;99971.88;5140184;27;20054;-63
2023/02/22 08:22:09;;;;;;;8.25;6.30;;;;;;;16.81;42.72;99961.38;5147165;27;20499;-64
2023/02/22 08:24:48;;;;;;;7.07;5.80;;;;;;;16.95;43.10;99963.69;5113222;27;20054;-64
2023/02/22 08:27:17;;;;;;;7.30;6.60;;;;;;;17.79;41.53;99959.22;5146779;27;20062;-65
2023/02/22 08:29:56;;;;;;;5.88;4.82;;;;;;;18.70;39.77;99958.63;5142998;27;20054;-65
2023/02/22 08:32:52;;;;;;;7.32;4.97;;;;;;;19.10;38.63;99952.31;5147399;27;20421;-63
2023/02/22 08:35:24;;;;;;;8.43;5.93;;;;;;;19.91;37.42;99958.41;5165632;27;20062;-64
2023/02/22 08:37:58;;;;;;;6.10;5.18;;;;;;;19.94;37.44;99947.13;5147121;27;20051;-64
2023/02/22 08:40:31;;;;;;;8.55;5.70;;;;;;;19.85;37.65;99953.13;5139663;27;20050;-64
2023/02/22 08:43:20;;;;;;;8.35;5.30;;;;;;;20.37;36.85;99946.63;5135421;27;20050;-61
2023/02/22 08:45:54;;;;;;;6.63;5.13;;;;;;;20.63;36.36;99943.59;5141165;27;20065;-63
2023/02/22 08:48:28;;;;;;;8.38;5.50;;;;;;;21.21;35.35;99949.50;5138539;27;20059;-64
2023/02/22 08:51:04;;;;;;;7.38;5.43;;;;;;;21.79;34.65;99939.91;5144463;27;20069;-62
2023/02/22 08:53:32;;;;;;;7.63;5.72;;;;;;;22.25;33.85;99935.47;5145501;27;20050;-64
2023/02/22 08:56:00;;;;;;;6.85;5.75;;;;;;;22.46;33.55;99932.59;5126126;27;20413;-63
2023/02/22 08:58:39;;;;;;;;;;;;;;;;;;;;;
2023/02/22 09:01:12;;;;;;;9.30;5.65;;;;;;;23.45;32.38;99929.75;5113954;27;20059;-62
2023/02/22 09:04:14;;;;;;;6.60;5.60;;;;;;;23.83;31.55;99924.25;5119993;27;20051;-62
2023/02/22 09:06:50;;;;;;;7.53;6.28;;;;;;;24.11;31.90;99928.06;5113672;27;20055;-63
2023/02/22 09:09:20;;;;;;;7.22;6.53;;;;;;;24.03;31.22;99921.63;5118330;27;20058;-64
2023/02/22 09:12:32;;;;;;;9.73;7.63;;;;;;;24.16;30.45;99918.28;5117483;27;20077;-63
2023/02/22 09:15:11;;;;;;;9.93;7.43;;;;;;;24.91;30.06;99912.56;5113629;27;20427;-61
2023/02/22 09:17:44;;;;;;;8.50;7.57;;;;;;;25.58;29.27;99914.13;5117948;27;20180;-63
2023/02/22 09:20:23;;;;;;;9.93;7.45;;;;;;;26.20;28.07;99909.81;5114715;27;20487;-64
2023/02/22 09:22:54;;;;;;;;;;;;;;;26.07;28.96;99906.78;5125195;27;20049;-63
2023/02/22 09:25:28;;;;;;;7.97;7.18;;;;;;;26.88;27.91;99908.53;5123482;27;20005;-62
2023/02/22 09:28:05;;;;;;;9.20;7.75;;;;;;;26.64;27.66;99907.78;5123516;27;20054;-62
2023/02/22 09:31:09;;;;;;;9.52;8.55;;;;;;;27.04;28.04;99904.91;5116771;27;20054;-63
2023/02/22 09:33:43;;;;;;;9.73;8.02;;;;;;;26.76;27.92;99905.53;5112999;27;20047;-63
2023/02/22 09:36:16;;;;;;;8.88;7.95;;;;;;;26.76;27.88;99902.69;5122423;27;20050;-65
2023/02/22 09:38:50;;;;;;;10.25;7.78;;;;;;;26.86;27.94;99901.66;5122865;27;20055;-64
2023/02/22 09:44:18;;;;;;;9.23;6.65;;;;;;;27.82;26.92;99900.69;5117788;27;20039;-64
2023/02/22 09:46:49;;;;;;;8.85;7.68;;;;;;;28.01;26.28;99891.22;5122315;27;20710;-64
2023/02/22 09:49:28;;;;;;;9.95;7.57;;;;;;;28.41;26.13;99891.00;5110442;27;20055;-64
2023/02/22 09:52:01;;;;;;;8.10;7.18;;;;;;;28.97;25.51;99886.94;5116847;27;20039;-62
2023/02/22 09:54:36;;;;;;;8.18;7.38;;;;;;;29.74;25.34;99890.69;5114630;27;20058;-63
2023/02/22 09:57:08;;;;;;;8.32;7.03;;;;;;;29.72;25.06;99883.81;5118752;27;20047;-64
2023/02/22 09:59:47;;;;;;;10.75;8.23;;;;;;;29.69;25.32;99884.69;5127505;27;20479;-64
2023/02/22 10:02:27;;;;;;;9.15;7.57;;;;;;;29.87;24.73;99873.44;5119535;27;20059;-63
2023/02/22 10:05:04;;;;;;;17.70;8.25;;;;;;;30.90;23.92;99873.88;5110586;27;20062;-62
2023/02/22 10:07:50;;;;;;;7.90;7.10;;;;;;;31.32;23.32;99870.59;5111212;27;20051;-63
2023/02/22 10:10:22;;;;;;;8.27;7.13;;;;;;;31.58;22.71;99863.84;5126522;27;20087;-64
2023/02/22 10:13:01;;;;;;;7.43;6.68;;;;;;;31.95;22.11;99854.00;5133749;27;20047;-64
2023/02/22 10:15:58;;;;;;;7.72;6.20;;;;;;;31.82;22.67;99861.22;5126870;27;20047;-64
2023/02/22 10:18:47;;;;;;;7.15;6.18;;;;;;;31.50;23.18;99854.72;5115018;27;20050;-63
2023/02/22 10:21:48;;;;;;;9.00;6.47;;;;;;;31.42;23.47;99844.75;5125246;27;20081;-64
2023/02/22 10:24:38;;;;;;;9.07;7.07;;;;;;;31.87;22.53;99846.94;5122693;27;20421;-64
2023/02/22 10:27:19;;;;;;;8.90;7.15;;;;;;;31.90;22.12;99843.13;5119833;27;20066;-63
2023/02/22 10:29:53;;;;;;;9.50;8.13;;;;;;;32.16;22.42;99837.91;5140277;27;20890;-64
2023/02/22 10:32:38;;;;;;;10.43;7.10;;;;;;;32.16;23.05;99842.88;5126846;27;20049;-64
2023/02/22 10:35:20;;;;;;;7.63;6.35;;;;;;;32.56;22.65;99839.03;5135231;27;20055;-62
2023/02/22 10:37:54;;;;;;;8.02;5.78;;;;;;;32.24;21.25;99838.38;5138493;27;20059;-64
2023/02/22 10:40:34;;;;;;;7.60;5.45;;;;;;;30.59;22.28;99829.88;5132673;27;20395;-64
2023/02/22 10:43:03;;;;;;;5.30;4.80;;;;;;;30.41;22.06;99836.28;5121485;27;20510;-64
2023/02/22 10:45:36;;;;;;;5.47;4.05;;;;;;;29.03;22.81;99836.38;5122633;27;20059;-64
2023/02/22 10:48:10;;;;;;;5.63;4.22;;;;;;;28.86;23.32;99837.72;5117246;27;20419;-64
2023/02/22 10:50:41;;;;;;;5.93;4.03;;;;;;;28.43;23.81;99841.81;5125373;27;20534;-63
2023/02/22 10:53:10;;;;;;;7.47;4.00;;;;;;;28.40;24.02;99828.41;5122108;27;20476;-63
2023/02/22 10:56:16;;;;;;;5.85;3.65;;;;;;;27.87;24.33;99838.03;5135014;27;20086;-65
2023/02/22 10:58:47;;;;;;;5.65;4.07;;;;;;;27.62;24.89;99834.97;5149104;27;20055;-64
2023/02/22 11:01:20;;;;;;;4.82;4.10;;;;;;;27.56;25.29;99825.31;5144225;27;20426;-64
2023/02/22 11:03:58;;;;;;;5.45;4.28;;;;;;;27.74;24.56;99832.19;5138468;27;20053;-64
2023/02/22 11:06:28;;;;;;;6.32;4.00;;;;;;;27.47;25.18;99826.75;5139665;27;20062;-64
2023/02/22 11:09:09;;;;;;;5.68;3.80;;;;;;;27.64;25.17;99821.03;5141586;27;20062;-63
2023/02/22 11:11:40;;;;;;;5.78;4.10;;;;;;;26.57;25.90;99830.81;5144520;27;20475;-62
2023/02/22 11:14:09;;;;;;;5.03;4.05;;;;;;;26.42;26.83;99826.63;5141028;27;20051;-64
2023/02/22 11:16:39;;;;;;;6.88;4.32;;;;;;;27.08;25.98;99828.44;5138476;27;20050;-64
2023/02/22 11:19:19;;;;;;;5.43;3.95;;;;;;;28.40;24.56;99828.41;5148825;27;20047;-64
2023/02/22 11:21:51;;;;;;;6.68;3.63;;;;;;;28.60;24.15;99816.78;5137291;27;20504;-64
2023/02/22 11:24:23;;;;;;;5.15;3.70;;;;;;;29.55;23.89;99812.16;5138591;27;20769;-63
2023/02/22 11:26:55;;;;;;;6.30;3.80;;;;;;;30.72;23.07;99804.72;5135779;27;20054;-63
2023/02/22 11:29:27;;;;;;;5.35;3.60;;;;;;;31.28;21.90;99803.75;5141155;27;20375;-63
2023/02/22 11:31:55;;;;;;;4.47;3.45;;;;;;;30.54;22.86;99799.69;5140347;27;20410;-64
2023/02/22 11:34:34;;;;;;;5.00;3.20;;;;;;;29.94;23.03;99798.56;5154030;27;20055;-64
2023/02/22 11:37:29;;;;;;;3.67;3.20;;;;;;;30.20;22.20;99791.88;5141970;27;20054;-64
2023/02/22 11:40:18;;;;;;;4.93;3.40;;;;;;;30.46;22.54;99790.53;5139161;27;20059;-64
2023/02/22 11:42:46;;;;;;;6.05;3.50;;;;;;;30.95;21.99;99786.19;5148430;27;20047;-64
2023/02/22 11:45:20;;;;;;;3.70;3.00;;;;;;;31.26;20.99;99779.59;5147545;27;20047;-64
2023/02/22 11:47:57;;;;;;;5.25;2.97;;;;;;;30.71;20.98;99780.13;5145143;27;20486;-64
2023/02/22 11:50:29;;;;;;;3.08;2.78;;;;;;;30.64;21.35;99784.09;5144757;27;20054;-64
2023/02/22 11:53:15;;;;;;;3.78;2.60;;;;;;;31.25;21.01;99781.69;5144870;27;20046;-64
2023/02/22 11:55:52;;;;;;;4.95;3.35;;;;;;;31.42;20.58;99772.78;5147801;27;20046;-63
2023/02/22 11:58:35;;;;;;;5.03;2.78;;;;;;;31.96;19.56;99774.16;5144322;27;20047;-64
2023/02/22 12:01:16;;;;;;;4.32;2.80;;;;;;;31.31;20.11;99761.69;5144699;27;20058;-64
2023/02/22 12:04:07;;;;;;;5.20;3.30;;;;;;;31.06;21.11;99765.66;5139194;27;20049;-64
2023/02/22 12:06:48;;;;;;;4.57;3.05;;;;;;;32.48;19.42;99762.78;5138185;27;20055;-64
2023/02/22 12:09:23;;;;;;;4.32;2.83;;;;;;;33.43;19.05;99764.38;5150335;27;20433;-64
2023/02/22 12:12:00;;;;;;;6.18;2.90;;;;;;;33.54;18.43;99763.84;5148975;27;20493;-64
2023/02/22 12:14:38;;;;;;;3.33;2.53;;;;;;;33.04;18.70;99760.53;5149281;27;20050;-63
2023/02/22 12:17:26;;;;;;;4.60;3.38;;;;;;;33.14;18.07;99757.16;5145140;27;20062;-63